Redwood National Park, CA

12:13 PM PST op 21 november 2014 (GMT -0800)
Walker Point | Change Station
CLOSE
Current Station
Persoonlijk weerstation
Location: Bayside, CA
Geometrische hoogte: 72 ft
Nabije weerstations

Hoogte 72 ft 40.81 °N, 124.09 °W | Updated 3 minutes ago

Regen
Regen
54.9 °F
Voelt als 54.9 °F
N
2.2
Wind Variabel Wind van ZW
Gusts 3.1 mijl/u

Vandaag
Hoog -- | Laag -- °F
--% Kans op neerslag
Gisteren
Hoog -- | Laag -- °F
Precip. -- inches
7:10 AM 4:53 PM
Afnemende halvemaan, 1% visible
Druk 29.99 inches
Zicht 8.0 mijlen
Wolken Gering 3700 ft
Geheel bewolkt 4300 ft
Dauwpunt 46 °F
Vochtigheid 73%
Neerslag 0.26 inches
Dikte sneeuw Niet beschikbaar.
UV 1 van de 12
Pollen 1.30 van de 12
Luchtkwaliteit Niet beschikbaar.
Flu Activity Niet beschikbaar.
METAR KACV 211953Z AUTO 14009KT 8SM -RA FEW037 OVC043 12/11 A2997 RMK AO2 SLP155 P0006 T01220106

More Conditions Fewer Conditions

Druk 29.99 inches
Zicht 8.0 mijlen
Wolken Gering 3700 ft
Geheel bewolkt 4300 ft
Dauwpunt 46 °F
Vochtigheid 73%
Neerslag 0.26 inches
Dikte sneeuw Niet beschikbaar.
UV 1 van de 12
Pollen 1.30 van de 12
Luchtkwaliteit Niet beschikbaar.
Flu Activity Niet beschikbaar.
METAR KACV 211953Z AUTO 14009KT 8SM -RA FEW037 OVC043 12/11 A2997 RMK AO2 SLP155 P0006 T01220106

More Conditions Fewer Conditions

10-Day Weather Forecast

Almanac

Astronomie

Nov. 21, 2014 Opkomst Ondergang
Werkelijke tijd
Burgerlijke schemering
Nautische schemering
Astronomische schemering
Maan
Golflengte van het zichtbare licht
Daglengte
Tomorrow will be .
, % of the Moon is Illuminated

Extremen vandaag

State Highs State Lows

Community

WunderPhotos

Upload Photos

1,772,710 foto’s ge-upload!

WunderBlogs® & News

Nearby

Luchtkwaliteit

  Luchtkwaliteit LK-index Verontreinigende stof
Not available.

Dikte sneeuw

Station Depth Geometrische hoogte

Aardbevingen

Stad Distance Mag. Time & Date
Minimum magnitude displayed is 2.5.

Watertemperatuur langs de kust

Plaats Temperatuur

Nabije weerstations